Time;durP1;ratioP1;P1;durP2;ratioP2;P2;SDS_P1;SDS_P2;PMS_P1;PMS_P2;Temp;Humidity;BMP_temperature;BMP_pressure;BME280_temperature;BME280_humidity;BME280_pressure;Samples;Min_cycle;Max_cycle;Signal;HPM_P1;HPM_P2
2022/10/05 00:01:01;;;;;;;6.70;0.68;;;;;;;14.35;100.00;99076.88;4851365;29;20584;-91
2022/10/05 00:03:35;;;;;;;2.40;0.60;;;;;;;14.35;100.00;99079.53;4863620;29;20049;-90
2022/10/05 00:06:05;;;;;;;5.32;0.85;;;;;;;14.32;100.00;99077.25;4864637;29;20177;-89
2022/10/05 00:08:36;;;;;;;3.33;0.93;;;;;;;14.32;100.00;99070.13;4835708;29;20056;-91
2022/10/05 00:11:07;;;;;;;5.05;0.60;;;;;;;14.33;100.00;99069.09;4851395;29;20053;-89
2022/10/05 00:13:37;;;;;;;2.58;0.47;;;;;;;14.33;100.00;99062.97;4866137;29;20389;-90
2022/10/05 00:16:29;;;;;;;2.78;0.38;;;;;;;14.34;100.00;99064.59;4853139;29;20047;-91
2022/10/05 00:18:59;;;;;;;2.03;0.47;;;;;;;14.33;100.00;99063.78;4865438;29;20429;-92
2022/10/05 00:21:29;;;;;;;0.98;0.40;;;;;;;14.32;100.00;99059.47;4873356;29;20063;-89
2022/10/05 00:24:00;;;;;;;0.70;0.40;;;;;;;14.33;100.00;99057.66;4861806;29;20042;-90
2022/10/05 00:26:32;;;;;;;4.22;0.70;;;;;;;14.33;100.00;99057.66;4859913;29;20045;-90
2022/10/05 00:29:14;;;;;;;2.78;0.43;;;;;;;14.31;100.00;99067.66;4842377;29;20070;-90
2022/10/05 00:31:43;;;;;;;1.58;0.30;;;;;;;14.26;100.00;99070.94;4861771;29;20049;-90
2022/10/05 00:34:11;;;;;;;0.98;0.32;;;;;;;14.18;100.00;99057.81;4865709;29;20064;-91
2022/10/05 00:36:39;;;;;;;2.85;0.35;;;;;;;14.12;100.00;99070.91;4846704;29;20036;-90
2022/10/05 00:39:07;;;;;;;0.45;0.17;;;;;;;14.00;100.00;99068.03;4846167;29;20094;-91
2022/10/05 00:42:02;;;;;;;0.75;0.30;;;;;;;13.88;100.00;99067.81;4861632;29;20436;-90
2022/10/05 00:44:41;;;;;;;0.60;0.47;;;;;;;13.83;100.00;99077.38;4845137;29;20116;-88
2022/10/05 00:47:45;;;;;;;1.13;0.30;;;;;;;13.79;100.00;99082.28;4830140;29;20041;-90
2022/10/05 00:50:52;;;;;;;1.17;0.25;;;;;;;13.74;100.00;99074.09;4875293;29;20033;-89
2022/10/05 00:53:41;;;;;;;0.82;0.20;;;;;;;13.71;100.00;99072.63;4840842;29;20067;-87
2022/10/05 00:56:16;;;;;;;1.65;0.30;;;;;;;13.70;100.00;99073.66;4852972;29;20141;-87
2022/10/05 00:59:12;;;;;;;1.92;0.20;;;;;;;13.69;100.00;99073.84;4845493;29;20503;-89
2022/10/05 01:01:59;;;;;;;;;;;;;;;13.60;100.00;99078.53;4859483;29;20498;-88
2022/10/05 01:04:39;;;;;;;4.88;0.50;;;;;;;13.64;100.00;99071.81;4861457;29;20377;-89
2022/10/05 01:07:17;;;;;;;0.52;0.20;;;;;;;13.66;100.00;99072.44;4826937;29;20037;-89
2022/10/05 01:10:06;;;;;;;1.63;0.20;;;;;;;13.70;100.00;99063.03;4876147;29;20418;-89
2022/10/05 01:12:46;;;;;;;0.57;0.38;;;;;;;13.69;100.00;99061.41;4829643;29;20042;-87
2022/10/05 01:15:16;;;;;;;1.38;0.30;;;;;;;13.68;100.00;99073.03;4843267;29;20463;-89
2022/10/05 01:17:54;;;;;;;2.95;0.45;;;;;;;13.70;100.00;99078.97;4844615;29;20040;-89
2022/10/05 01:20:40;;;;;;;0.50;0.22;;;;;;;13.68;100.00;99059.75;4829628;29;20109;-89
2022/10/05 01:23:24;;;;;;;0.95;0.28;;;;;;;13.67;100.00;99058.13;4852316;29;20048;-90
2022/10/05 01:26:19;;;;;;;0.65;0.30;;;;;;;13.69;100.00;99069.38;4861816;29;20033;-89
2022/10/05 01:29:14;;;;;;;0.55;0.30;;;;;;;13.68;100.00;99070.38;4864084;29;20036;-90
2022/10/05 01:31:53;;;;;;;2.00;0.43;;;;;;;13.68;100.00;99069.56;4848118;29;20523;-89
2022/10/05 01:34:41;;;;;;;0.98;0.40;;;;;;;13.68;100.00;99066.91;4847025;29;20514;-89
2022/10/05 01:37:10;;;;;;;1.00;0.30;;;;;;;13.67;100.00;99060.78;4847853;29;20505;-90
2022/10/05 01:39:57;;;;;;;0.47;0.30;;;;;;;13.69;100.00;99063.22;4833494;29;20073;-90
2022/10/05 01:42:31;;;;;;;1.52;0.70;;;;;;;13.67;100.00;99060.78;4847826;29;20500;-91
2022/10/05 01:45:05;;;;;;;1.30;0.35;;;;;;;13.62;100.00;99045.44;4863266;29;20454;-89
2022/10/05 01:47:39;;;;;;;1.35;0.30;;;;;;;13.60;100.00;99047.47;4858857;29;20075;-90
2022/10/05 01:50:13;;;;;;;0.85;0.40;;;;;;;13.58;100.00;99043.38;4863842;29;20097;-89
2022/10/05 01:53:03;;;;;;;2.47;0.40;;;;;;;13.55;100.00;99035.81;4863216;29;20577;-89
2022/10/05 01:55:41;;;;;;;1.40;0.40;;;;;;;13.54;100.00;99032.34;4847974;29;20119;-89
2022/10/05 01:58:46;;;;;;;2.00;0.38;;;;;;;13.49;100.00;99026.81;4863378;29;20064;-88
2022/10/05 02:02:20;;;;;;;4.15;0.68;;;;;;;13.46;100.00;99032.47;4845425;29;20042;-88
2022/10/05 02:05:10;;;;;;;1.45;0.45;;;;;;;13.48;100.00;99027.81;4811337;29;20046;-88
2022/10/05 02:07:54;;;;;;;3.88;0.57;;;;;;;13.48;100.00;99046.38;4844584;29;20041;-88
2022/10/05 02:10:34;;;;;;;1.35;0.60;;;;;;;13.45;100.00;99062.69;4824192;29;20495;-89
2022/10/05 02:13:40;;;;;;;1.75;0.45;;;;;;;13.36;100.00;99056.75;4848177;29;20541;-92
2022/10/05 02:16:15;;;;;;;3.05;0.13;;;;;;;13.22;100.00;99066.50;4830764;29;20052;-89
2022/10/05 02:18:52;;;;;;;1.00;0.13;;;;;;;13.11;100.00;99062.53;4862584;29;20041;-91
2022/10/05 02:21:21;;;;;;;;;;;;;;;12.88;100.00;99055.66;4830140;29;20054;-90
2022/10/05 02:23:55;;;;;;;2.40;0.05;;;;;;;12.84;100.00;99059.69;4827693;29;19921;-91
2022/10/05 02:26:24;;;;;;;1.20;0.00;;;;;;;12.77;100.00;99057.81;4826362;29;20045;-90
2022/10/05 02:28:59;;;;;;;1.55;0.20;;;;;;;12.75;100.00;99057.22;4827497;29;20037;-90
2022/10/05 02:31:46;;;;;;;1.25;0.10;;;;;;;12.73;100.00;99053.94;4841019;29;20037;-88
2022/10/05 02:34:20;;;;;;;0.93;0.10;;;;;;;12.73;100.00;99061.06;4827340;29;20148;-91
2022/10/05 02:36:56;;;;;;;0.03;0.03;;;;;;;12.73;100.00;99072.50;4828764;29;20129;-91
2022/10/05 02:40:00;;;;;;;0.85;0.10;;;;;;;12.72;100.00;99072.69;4843423;29;20133;-90
2022/10/05 02:42:47;;;;;;;0.85;0.10;;;;;;;12.74;100.00;99076.78;4786332;29;20490;-89
2022/10/05 02:45:34;;;;;;;0.63;0.10;;;;;;;12.77;100.00;99080.88;4842168;29;20045;-91
2022/10/05 02:48:21;;;;;;;1.23;0.10;;;;;;;12.78;100.00;99075.41;4841891;29;20041;-90
2022/10/05 02:51:03;;;;;;;0.30;0.10;;;;;;;12.81;100.00;99076.00;4837606;29;20140;-90
2022/10/05 02:53:42;;;;;;;3.65;0.22;;;;;;;12.83;100.00;99073.97;4843436;29;20483;-91
2022/10/05 02:56:53;;;;;;;1.65;0.20;;;;;;;12.87;100.00;99073.41;4823331;29;20046;-92
2022/10/05 02:59:35;;;;;;;0.20;0.10;;;;;;;12.92;100.00;99078.13;4810307;29;20049;-92
2022/10/05 03:02:31;;;;;;;0.10;0.10;;;;;;;12.93;100.00;99071.81;4825092;29;20030;-92
2022/10/05 03:05:13;;;;;;;2.40;0.20;;;;;;;12.94;100.00;99054.88;4853510;29;20041;-91
2022/10/05 03:08:09;;;;;;;1.60;0.10;;;;;;;12.94;100.00;99056.72;4815839;29;20042;-91
2022/10/05 03:10:57;;;;;;;2.53;0.17;;;;;;;12.95;100.00;99043.25;4840740;29;20102;-91
2022/10/05 03:13:39;;;;;;;5.63;0.35;;;;;;;12.99;100.00;99043.69;4839405;29;20061;-91
2022/10/05 03:16:38;;;;;;;3.20;0.20;;;;;;;13.03;100.00;99058.19;4839944;29;20030;-91
2022/10/05 03:19:32;;;;;;;0.50;0.30;;;;;;;13.03;100.00;99066.16;4840570;29;20038;-91
2022/10/05 03:22:19;;;;;;;3.40;0.47;;;;;;;13.03;100.00;99059.03;4836834;29;20056;-90
2022/10/05 03:25:01;;;;;;;3.35;0.30;;;;;;;13.00;100.00;99064.72;4843789;29;20466;-91
2022/10/05 03:28:07;;;;;;;3.35;0.30;;;;;;;12.98;100.00;99065.94;4841760;29;20113;-91
2022/10/05 03:31:02;;;;;;;1.45;0.15;;;;;;;12.97;100.00;99072.25;4843692;29;20050;-92
2022/10/05 03:34:08;;;;;;;7.03;0.30;;;;;;;12.87;100.00;99070.75;4821713;29;20522;-91
2022/10/05 03:36:44;;;;;;;0.60;0.10;;;;;;;12.73;100.00;99053.09;4774573;29;20530;-91
2022/10/05 03:39:34;;;;;;;2.13;0.10;;;;;;;12.66;100.00;99053.09;4820390;29;20513;-90
2022/10/05 03:42:19;;;;;;;0.10;0.10;;;;;;;12.62;100.00;99055.28;4843157;29;20085;-90
2022/10/05 03:45:21;;;;;;;1.10;0.10;;;;;;;12.61;100.00;99053.63;4847295;29;20045;-91
2022/10/05 03:48:01;;;;;;;0.90;0.20;;;;;;;12.62;100.00;99046.50;4862182;29;20116;-90
2022/10/05 03:50:46;;;;;;;0.85;0.10;;;;;;;12.62;100.00;99054.47;4847379;29;20052;-91
2022/10/05 03:53:20;;;;;;;0.82;0.13;;;;;;;12.65;100.00;99049.59;4861538;29;20531;-91
2022/10/05 03:55:58;;;;;;;0.77;0.20;;;;;;;12.71;100.00;99053.28;4857786;29;20037;-90
2022/10/05 03:58:34;;;;;;;1.08;0.20;;;;;;;12.76;100.00;99040.28;4862156;29;20045;-90
2022/10/05 04:01:10;;;;;;;1.15;0.20;;;;;;;12.81;100.00;99052.97;4846928;29;20041;-90
2022/10/05 04:03:52;;;;;;;1.95;0.20;;;;;;;12.85;100.00;99051.56;4843615;29;20506;-91
2022/10/05 04:06:30;;;;;;;2.10;0.15;;;;;;;12.86;100.00;99055.03;4843942;29;20033;-90
2022/10/05 04:09:23;;;;;;;2.88;0.20;;;;;;;12.85;100.00;99054.22;4861773;29;20037;-90
2022/10/05 04:12:15;;;;;;;0.25;0.10;;;;;;;12.87;100.00;99060.16;4843416;29;20052;-91
2022/10/05 04:14:48;;;;;;;2.95;0.50;;;;;;;12.87;100.00;99073.41;4861822;29;20057;-91
2022/10/05 04:17:21;;;;;;;2.08;0.20;;;;;;;12.80;100.00;99077.03;4831194;29;20048;-92
2022/10/05 04:20:06;;;;;;;1.25;0.20;;;;;;;12.81;100.00;99076.00;4831047;29;20041;-91
2022/10/05 04:22:50;;;;;;;4.70;0.52;;;;;;;12.61;100.00;99066.09;4821595;29;20073;-91
2022/10/05 04:25:27;;;;;;;0.88;0.20;;;;;;;12.29;100.00;99061.13;4827073;29;20088;-91
2022/10/05 04:28:10;;;;;;;1.20;0.25;;;;;;;12.12;100.00;99066.66;4857033;29;20037;-92
2022/10/05 04:30:43;;;;;;;1.02;0.20;;;;;;;11.93;100.00;99075.22;4826691;29;20527;-91
2022/10/05 04:33:14;;;;;;;0.73;0.28;;;;;;;11.84;100.00;99070.03;4841485;29;20041;-90
2022/10/05 04:35:49;;;;;;;0.47;0.20;;;;;;;11.79;100.00;99069.75;4840176;29;20081;-91
2022/10/05 04:38:40;;;;;;;0.93;0.13;;;;;;;11.71;100.00;99069.84;4820167;29;20042;-91
2022/10/05 04:41:27;;;;;;;3.45;0.40;;;;;;;11.69;100.00;99079.81;4839696;29;20038;-90
2022/10/05 04:44:20;;;;;;;0.57;0.20;;;;;;;11.58;100.00;99076.63;4827642;29;20037;-89
2022/10/05 04:47:10;;;;;;;0.45;0.10;;;;;;;11.54;100.00;99078.84;4804151;29;20053;-90
2022/10/05 04:50:00;;;;;;;1.25;0.25;;;;;;;11.56;100.00;99097.19;4798843;29;20602;-90
2022/10/05 04:52:48;;;;;;;1.58;0.10;;;;;;;11.60;100.00;99085.22;4837981;29;20042;-90
2022/10/05 04:55:19;;;;;;;0.10;0.10;;;;;;;11.63;100.00;99079.56;4812413;29;20041;-90
2022/10/05 04:58:08;;;;;;;0.10;0.10;;;;;;;11.65;100.00;99087.31;4840230;29;20049;-91
2022/10/05 05:01:04;;;;;;;0.10;0.10;;;;;;;11.64;100.00;99091.78;4844081;29;20064;-91
2022/10/05 05:04:00;;;;;;;2.33;0.10;;;;;;;11.59;100.00;99093.34;4817286;29;20038;-90
2022/10/05 05:06:46;;;;;;;0.35;0.10;;;;;;;11.61;100.00;99097.44;4826973;29;20053;-91
2022/10/05 05:09:38;;;;;;;0.50;0.20;;;;;;;11.62;100.00;99099.09;4820187;29;20042;-91
2022/10/05 05:12:31;;;;;;;0.10;0.10;;;;;;;11.63;100.00;99098.09;4840127;29;20037;-91
2022/10/05 05:15:21;;;;;;;0.30;0.10;;;;;;;11.63;100.00;99092.78;4827611;29;20033;-90
2022/10/05 05:18:19;;;;;;;0.20;0.10;;;;;;;11.65;100.00;99090.78;4793937;29;20089;-90
2022/10/05 05:21:06;;;;;;;1.02;0.10;;;;;;;11.69;100.00;99087.78;4831586;29;20045;-89
2022/10/05 05:23:42;;;;;;;1.85;0.20;;;;;;;11.69;100.00;99101.81;4831645;29;20061;-89
2022/10/05 05:26:50;;;;;;;0.38;0.10;;;;;;;11.69;100.00;99099.16;4852844;29;20046;-90
2022/10/05 05:29:27;;;;;;;0.63;0.20;;;;;;;11.71;100.00;99088.38;4841988;29;20053;-90
2022/10/05 05:32:01;;;;;;;0.75;0.20;;;;;;;11.71;100.00;99094.50;4858134;29;20080;-92
2022/10/05 05:35:06;;;;;;;0.30;0.10;;;;;;;11.73;100.00;99097.81;4859182;29;20040;-91
2022/10/05 05:38:01;;;;;;;2.00;0.20;;;;;;;11.74;100.00;99093.31;4844258;29;20048;-89
2022/10/05 05:40:50;;;;;;;2.20;0.20;;;;;;;11.75;100.00;99085.19;4844824;29;20536;-90
2022/10/05 05:44:01;;;;;;;0.82;0.10;;;;;;;11.74;100.00;99078.25;4829215;29;20042;-90
2022/10/05 05:46:39;;;;;;;1.15;0.20;;;;;;;11.77;100.00;99082.34;4834771;29;20406;-89
2022/10/05 05:49:23;;;;;;;2.47;0.13;;;;;;;11.75;100.00;99079.09;4831080;29;20125;-91
2022/10/05 05:52:03;;;;;;;0.73;0.23;;;;;;;11.73;100.00;99076.63;4861219;29;20052;-90
2022/10/05 05:54:55;;;;;;;0.77;0.10;;;;;;;11.74;100.00;99072.97;4831084;29;20829;-89
2022/10/05 05:57:26;;;;;;;0.00;0.00;;;;;;;11.71;100.00;99067.22;4837524;29;20082;-90
2022/10/05 06:00:02;;;;;;;2.38;0.20;;;;;;;11.71;100.00;99075.97;4844015;29;20044;-90
2022/10/05 06:02:46;;;;;;;0.80;0.10;;;;;;;11.71;100.00;99085.75;4870733;29;20549;-90
2022/10/05 06:05:27;;;;;;;0.63;0.05;;;;;;;11.76;100.00;99091.31;4840776;29;20045;-90
2022/10/05 06:08:06;;;;;;;0.50;0.20;;;;;;;11.80;100.00;99097.88;4834424;29;20102;-90
2022/10/05 06:10:47;;;;;;;0.17;0.10;;;;;;;11.86;100.00;99104.25;4835263;29;20546;-91
2022/10/05 06:13:34;;;;;;;1.08;0.22;;;;;;;11.85;100.00;99092.03;4840866;29;20029;-90
2022/10/05 06:16:41;;;;;;;0.50;0.15;;;;;;;11.82;100.00;99098.50;4830702;29;20049;-90
2022/10/05 06:19:15;;;;;;;1.20;0.10;;;;;;;11.82;100.00;99103.78;4844774;29;20045;-90
2022/10/05 06:22:24;;;;;;;1.65;0.10;;;;;;;11.82;100.00;99105.63;4843706;29;20114;-90
2022/10/05 06:25:12;;;;;;;0.38;0.10;;;;;;;11.84;100.00;99114.19;4842735;29;20034;-90
2022/10/05 06:28:10;;;;;;;0.52;0.10;;;;;;;11.86;100.00;99117.50;4844284;29;20049;-90
2022/10/05 06:31:04;;;;;;;0.43;0.10;;;;;;;11.85;100.00;99108.72;4844141;29;20069;-90
2022/10/05 06:33:52;;;;;;;0.50;0.03;;;;;;;11.83;100.00;99109.91;4836375;29;20041;-90
2022/10/05 06:36:49;;;;;;;0.52;0.10;;;;;;;11.82;100.00;99121.53;4875325;29;20044;-90
2022/10/05 06:39:40;;;;;;;0.10;0.10;;;;;;;11.79;100.00;99131.47;4857635;29;20154;-90
2022/10/05 06:42:28;;;;;;;1.10;0.20;;;;;;;11.77;100.00;99127.34;4844129;29;20051;-89
2022/10/05 06:46:04;;;;;;;1.65;0.10;;;;;;;11.73;100.00;99112.84;4862040;29;20400;-89
2022/10/05 06:49:00;;;;;;;0.73;0.10;;;;;;;11.73;100.00;99107.56;4800642;29;20125;-90
2022/10/05 06:51:55;;;;;;;;;;;;;;;11.64;100.00;99099.72;4780079;29;20549;-90
2022/10/05 06:54:46;;;;;;;1.65;0.20;;;;;;;11.69;100.00;99104.44;4830100;29;19951;-90
2022/10/05 06:57:57;;;;;;;2.13;0.20;;;;;;;11.69;100.00;99122.19;4840673;29;20105;-90
2022/10/05 07:00:39;;;;;;;0.93;0.10;;;;;;;11.70;100.00;99126.47;4839605;29;20037;-90
2022/10/05 07:03:20;;;;;;;1.30;0.15;;;;;;;11.70;100.00;99127.28;4823974;29;20137;-90
2022/10/05 07:06:14;;;;;;;0.80;0.10;;;;;;;11.71;100.00;99118.31;4827897;29;20045;-88
2022/10/05 07:08:59;;;;;;;1.75;0.10;;;;;;;11.70;100.00;99127.28;4826797;29;20145;-88
2022/10/05 07:11:39;;;;;;;1.00;0.10;;;;;;;11.68;100.00;99116.06;4844177;29;20048;-87
2022/10/05 07:14:24;;;;;;;1.90;0.20;;;;;;;11.68;100.00;99123.16;4846279;29;20025;-86
2022/10/05 07:17:17;;;;;;;0.90;0.10;;;;;;;11.68;100.00;99125.81;4832313;29;20053;-88
2022/10/05 07:20:20;;;;;;;1.05;0.20;;;;;;;11.62;100.00;99125.56;4825766;29;20081;-88
2022/10/05 07:23:13;;;;;;;0.20;0.17;;;;;;;11.60;100.00;99126.72;4844622;29;20082;-87
2022/10/05 07:26:00;;;;;;;1.55;0.13;;;;;;;11.63;100.00;99150.19;4843737;29;20189;-88
2022/10/05 07:28:37;;;;;;;3.13;0.22;;;;;;;11.62;100.00;99167.06;4860503;29;20057;-87
2022/10/05 07:31:17;;;;;;;1.08;0.20;;;;;;;11.60;100.00;99175.19;4845913;29;20200;-88
2022/10/05 07:34:00;;;;;;;0.50;0.10;;;;;;;11.58;100.00;99181.69;4859354;29;20394;-88
2022/10/05 07:39:30;;;;;;;;;;;;;;;11.39;100.00;99179.38;4843323;29;20046;-86
2022/10/05 07:42:18;;;;;;;1.00;0.30;;;;;;;11.43;100.00;99171.91;4831354;29;19922;-89
2022/10/05 07:45:12;;;;;;;0.77;0.22;;;;;;;11.40;100.00;99166.97;4846846;29;20041;-88
2022/10/05 07:47:52;;;;;;;0.10;0.10;;;;;;;11.39;100.00;99173.25;4872947;29;20596;-88
2022/10/05 07:50:42;;;;;;;0.75;0.20;;;;;;;11.36;100.00;99163.03;4832283;29;20386;-88
2022/10/05 07:53:29;;;;;;;1.33;0.20;;;;;;;11.33;100.00;99161.59;4845001;29;20573;-88
2022/10/05 07:56:14;;;;;;;0.73;0.30;;;;;;;11.32;100.00;99169.72;4845742;29;20478;-87
2022/10/05 07:58:47;;;;;;;5.07;0.50;;;;;;;11.32;100.00;99183.78;4863048;29;20037;-89
2022/10/05 08:01:26;;;;;;;6.22;0.30;;;;;;;11.28;100.00;99193.88;4832162;29;20026;-88
2022/10/05 08:04:08;;;;;;;0.80;0.30;;;;;;;11.27;100.00;99209.94;4855352;29;20032;-89
2022/10/05 08:07:03;;;;;;;0.43;0.20;;;;;;;11.27;100.00;99212.56;4847419;29;20491;-88
2022/10/05 08:10:18;;;;;;;1.00;0.30;;;;;;;11.21;100.00;99213.28;4877572;29;20049;-89
2022/10/05 08:13:03;;;;;;;1.08;0.32;;;;;;;11.18;100.00;99211.81;4830891;29;20103;-88
2022/10/05 08:15:47;;;;;;;0.87;0.30;;;;;;;11.19;100.00;99218.75;4860747;29;20390;-88
2022/10/05 08:18:40;;;;;;;1.05;0.30;;;;;;;11.19;100.00;99226.69;4846510;29;20033;-87
2022/10/05 08:21:15;;;;;;;2.65;0.30;;;;;;;11.18;100.00;99230.31;4824343;29;20650;-88
2022/10/05 08:24:11;;;;;;;6.68;0.40;;;;;;;11.18;100.00;99218.94;4831690;29;20041;-88
2022/10/05 08:27:00;;;;;;;0.70;0.28;;;;;;;11.19;100.00;99225.88;4845402;29;20041;-86
2022/10/05 08:29:52;;;;;;;0.32;0.20;;;;;;;11.19;100.00;99223.22;4845990;29;20033;-87
2022/10/05 08:32:44;;;;;;;2.67;1.02;;;;;;;11.20;100.00;99244.19;4845305;29;20382;-86
2022/10/05 08:35:27;;;;;;;2.83;0.40;;;;;;;11.20;100.00;99243.38;4831481;29;20052;-86
2022/10/05 08:37:57;;;;;;;0.77;0.43;;;;;;;11.19;100.00;99244.38;4840084;29;20053;-88
2022/10/05 08:40:55;;;;;;;4.05;0.30;;;;;;;11.18;100.00;99254.13;4830428;29;20033;-87
2022/10/05 08:43:52;;;;;;;5.82;0.30;;;;;;;11.12;100.00;99271.53;4859075;29;20043;-89
2022/10/05 08:46:51;;;;;;;1.33;0.20;;;;;;;11.11;100.00;99274.34;4846777;29;20034;-88
2022/10/05 08:49:55;;;;;;;4.28;0.28;;;;;;;11.06;100.00;99276.69;4845877;29;20033;-87
2022/10/05 08:52:29;;;;;;;0.93;0.40;;;;;;;11.07;100.00;99276.53;4861462;29;20099;-90
2022/10/05 08:55:19;;;;;;;1.88;0.32;;;;;;;11.08;100.00;99262.31;4860722;29;20129;-91
2022/10/05 08:58:10;;;;;;;1.80;0.30;;;;;;;11.08;100.00;99272.91;4842341;29;20046;-90
2022/10/05 09:01:01;;;;;;;1.90;0.30;;;;;;;11.07;100.00;99279.16;4842428;29;20042;-89
2022/10/05 09:03:53;;;;;;;1.63;0.40;;;;;;;11.05;100.00;99289.13;4849766;29;20049;-92
2022/10/05 09:06:49;;;;;;;0.40;0.20;;;;;;;11.04;100.00;99293.56;4855479;29;20515;-89
2022/10/05 09:09:50;;;;;;;3.03;0.50;;;;;;;11.02;100.00;99294.75;4845037;29;20128;-89
2022/10/05 09:12:43;;;;;;;1.65;0.20;;;;;;;11.04;100.00;99295.38;4820462;29;21755;-91
2022/10/05 09:15:52;;;;;;;0.32;0.10;;;;;;;11.00;100.00;99300.22;4859138;29;20394;-91
2022/10/05 09:18:54;;;;;;;1.75;0.17;;;;;;;11.02;100.00;99295.56;4841913;29;20037;-90
2022/10/05 09:21:43;;;;;;;2.30;0.30;;;;;;;11.08;100.00;99306.44;4831288;29;20061;-91
2022/10/05 09:24:16;;;;;;;1.05;0.20;;;;;;;11.15;100.00;99308.22;4857763;29;20442;-91
2022/10/05 09:27:04;;;;;;;0.82;0.22;;;;;;;11.23;100.00;99311.78;4860015;29;20125;-89
2022/10/05 09:30:13;;;;;;;1.73;0.20;;;;;;;11.31;100.00;99319.66;4833810;29;20672;-89
2022/10/05 09:32:52;;;;;;;1.77;0.43;;;;;;;11.36;100.00;99335.84;4843346;29;20052;-89
2022/10/05 09:35:34;;;;;;;1.40;0.28;;;;;;;11.38;100.00;99328.56;4857990;29;20082;-90
2022/10/05 09:38:18;;;;;;;0.98;0.20;;;;;;;11.34;100.00;99329.09;4842643;29;20390;-89
2022/10/05 09:41:07;;;;;;;4.65;0.38;;;;;;;11.36;100.00;99329.72;4828353;29;20044;-90
2022/10/05 09:44:07;;;;;;;1.23;0.20;;;;;;;11.27;100.00;99332.44;4827303;29;20037;-90
2022/10/05 09:46:48;;;;;;;2.42;0.20;;;;;;;11.25;100.00;99334.44;4857278;29;20427;-90
2022/10/05 09:49:27;;;;;;;2.35;0.30;;;;;;;11.32;100.00;99336.38;4843677;29;20128;-87
2022/10/05 09:52:00;;;;;;;2.85;0.40;;;;;;;11.40;100.00;99339.75;4859646;29;20060;-91
2022/10/05 09:54:51;;;;;;;6.72;0.35;;;;;;;11.45;100.00;99343.72;4817881;29;20049;-90
2022/10/05 09:58:01;;;;;;;3.60;0.20;;;;;;;11.52;100.00;99352.56;4859484;29;20478;-90
2022/10/05 10:00:45;;;;;;;1.20;0.30;;;;;;;11.62;100.00;99354.97;4819406;29;20486;-90
2022/10/05 10:03:32;;;;;;;2.40;0.20;;;;;;;11.62;100.00;99360.28;4840703;29;20049;-91
2022/10/05 10:06:10;;;;;;;1.10;0.30;;;;;;;11.71;100.00;99379.56;4844050;29;20042;-90
2022/10/05 10:08:47;;;;;;;4.43;0.20;;;;;;;11.79;100.00;99395.38;4831407;29;20040;-91
2022/10/05 10:11:49;;;;;;;3.35;0.30;;;;;;;11.76;100.00;99401.03;4856906;29;20045;-92
2022/10/05 10:15:05;;;;;;;2.42;0.30;;;;;;;11.88;100.00;99402.25;4843808;29;20070;-92
2022/10/05 10:17:39;;;;;;;1.63;0.20;;;;;;;12.02;100.00;99397.97;4845236;29;20129;-92
2022/10/05 10:20:29;;;;;;;5.68;0.40;;;;;;;12.14;100.00;99402.88;4845058;29;20045;-93
2022/10/05 10:22:59;;;;;;;2.85;0.30;;;;;;;12.20;100.00;99401.34;4844198;29;20422;-93
2022/10/05 10:25:41;;;;;;;1.50;0.40;;;;;;;12.16;100.00;99406.19;4844632;29;20029;-90
2022/10/05 10:28:17;;;;;;;0.98;0.20;;;;;;;11.99;100.00;99421.38;4849164;29;20037;-92
2022/10/05 10:30:46;;;;;;;;;;;;;;;11.75;100.00;99420.56;4830612;29;20042;-89
2022/10/05 10:33:38;;;;;;;3.70;0.38;;;;;;;11.68;100.00;99407.22;4841615;29;19928;-90
2022/10/05 10:36:21;;;;;;;5.13;1.10;;;;;;;11.55;100.00;99418.38;4843544;29;20036;-89
2022/10/05 10:39:04;;;;;;;2.95;1.63;;;;;;;11.51;100.00;99425.03;4843573;29;20045;-90
2022/10/05 10:41:32;;;;;;;4.82;1.23;;;;;;;11.51;100.00;99436.47;4826269;29;20048;-88
2022/10/05 10:44:19;;;;;;;4.15;0.60;;;;;;;11.51;100.00;99438.28;4856914;29;20125;-90
2022/10/05 10:47:26;;;;;;;3.50;0.43;;;;;;;11.52;100.00;99430.16;4856359;29;20104;-92
2022/10/05 10:49:56;;;;;;;;;;;;;;;11.46;100.00;99433.50;4854422;29;20046;-88
2022/10/05 10:52:31;;;;;;;2.40;0.20;;;;;;;11.59;100.00;99430.28;4842153;29;19917;-90
2022/10/05 10:55:17;;;;;;;1.10;0.20;;;;;;;11.72;100.00;99442.09;4856566;29;20044;-91
2022/10/05 10:57:56;;;;;;;0.60;0.10;;;;;;;11.86;100.00;99440.50;4827950;29;20045;-90
2022/10/05 11:00:53;;;;;;;1.55;0.28;;;;;;;11.94;100.00;99444.91;4835518;29;20067;-89
2022/10/05 11:03:50;;;;;;;1.52;0.22;;;;;;;12.04;100.00;99443.66;4827213;29;20505;-91
2022/10/05 11:06:25;;;;;;;1.73;0.35;;;;;;;12.15;100.00;99442.44;4865223;29;20554;-90
2022/10/05 11:09:25;;;;;;;3.47;1.13;;;;;;;12.23;100.00;99448.66;4829056;29;20543;-90
2022/10/05 11:11:58;;;;;;;6.22;0.63;;;;;;;12.24;100.00;99435.25;4859520;29;20041;-90
2022/10/05 11:14:34;;;;;;;3.30;0.50;;;;;;;12.30;100.00;99443.44;4844663;29;20037;-90
2022/10/05 11:17:23;;;;;;;;;;;;;;;12.31;100.00;99445.91;4848163;29;20049;-92
2022/10/05 11:20:25;;;;;;;4.35;0.77;;;;;;;12.50;100.00;99439.28;4842093;29;19923;-90
2022/10/05 11:23:01;;;;;;;3.83;0.60;;;;;;;12.60;100.00;99440.81;4828653;29;20057;-91
2022/10/05 11:25:43;;;;;;;4.10;0.52;;;;;;;12.59;100.00;99450.63;4811057;29;20102;-90
2022/10/05 11:28:44;;;;;;;5.40;0.82;;;;;;;12.58;100.00;99450.81;4804060;29;20415;-90
2022/10/05 11:31:57;;;;;;;4.47;0.47;;;;;;;12.63;100.00;99451.91;4829850;29;20042;-92
2022/10/05 11:35:11;;;;;;;5.15;0.75;;;;;;;12.69;100.00;99446.88;4809280;29;20041;-90
2022/10/05 11:38:08;;;;;;;4.57;0.80;;;;;;;12.70;100.00;99449.34;4820489;29;20038;-90
2022/10/05 11:40:46;;;;;;;4.57;0.47;;;;;;;12.77;100.00;99460.84;4807567;29;20038;-91
2022/10/05 11:43:37;;;;;;;4.90;0.73;;;;;;;12.88;100.00;99456.09;4814673;29;20119;-91
2022/10/05 11:46:16;;;;;;;4.10;1.17;;;;;;;13.00;100.00;99459.09;4841191;29;20046;-90
2022/10/05 11:49:34;;;;;;;6.43;1.02;;;;;;;13.07;99.14;99468.00;4831873;29;20044;-91
2022/10/05 11:52:21;;;;;;;;;;;;;;;13.07;95.19;99462.69;4813155;29;20073;-92
2022/10/05 11:55:23;;;;;;;4.67;0.73;;;;;;;13.25;96.03;99458.81;4822650;29;19959;-91
2022/10/05 11:58:00;;;;;;;4.88;0.60;;;;;;;13.29;95.00;99476.00;4824784;29;20070;-91
2022/10/05 12:00:56;;;;;;;2.85;0.50;;;;;;;13.32;90.81;99488.88;4811540;29;20491;-90
2022/10/05 12:03:46;;;;;;;5.93;0.68;;;;;;;13.32;89.87;99498.66;4825512;29;20094;-90
2022/10/05 12:06:21;;;;;;;1.52;0.50;;;;;;;13.37;91.71;99497.13;4828127;29;20057;-90
2022/10/05 12:09:20;;;;;;;5.63;1.15;;;;;;;13.37;87.65;99494.47;4814772;29;20042;-91
2022/10/05 12:12:16;;;;;;;5.22;1.20;;;;;;;13.27;84.02;99501.88;4834051;29;20090;-92
2022/10/05 12:15:01;;;;;;;6.05;1.00;;;;;;;13.29;87.33;99513.16;4840633;29;20038;-91
2022/10/05 12:17:40;;;;;;;10.10;0.80;;;;;;;13.36;87.01;99515.88;4826815;29;20507;-90
2022/10/05 12:20:45;;;;;;;6.03;0.90;;;;;;;13.45;86.10;99504.16;4849567;29;20053;-90
2022/10/05 12:23:23;;;;;;;10.23;1.00;;;;;;;13.39;85.37;99515.53;4824138;29;20488;-91
2022/10/05 12:26:03;;;;;;;4.88;0.85;;;;;;;13.09;85.73;99565.97;4826761;29;20050;-90
2022/10/05 12:28:42;;;;;;;3.60;0.60;;;;;;;12.65;86.65;99557.75;4828380;29;20060;-91
2022/10/05 12:31:50;;;;;;;3.00;0.40;;;;;;;12.08;86.50;99562.53;4838787;29;20472;-92
2022/10/05 12:34:34;;;;;;;4.15;0.82;;;;;;;11.87;90.22;99566.59;4795771;29;20099;-93
2022/10/05 12:37:06;;;;;;;4.75;0.63;;;;;;;11.69;91.91;99569.50;4774188;29;20045;-91
2022/10/05 12:39:43;;;;;;;4.03;0.40;;;;;;;11.60;92.92;99561.59;4810477;29;20053;-93
2022/10/05 12:42:31;;;;;;;2.40;0.50;;;;;;;11.47;93.47;99556.88;4815247;29;20436;-91
2022/10/05 12:45:24;;;;;;;3.78;0.45;;;;;;;11.39;92.89;99570.13;4828769;29;20094;-93
2022/10/05 12:48:14;;;;;;;3.75;0.60;;;;;;;11.27;94.17;99567.88;4841197;29;20083;-91
2022/10/05 12:50:48;;;;;;;5.82;0.98;;;;;;;11.19;94.66;99562.59;4843165;29;20041;-91
2022/10/05 12:54:03;;;;;;;7.15;0.75;;;;;;;11.15;94.47;99561.28;4802080;29;20038;-89
2022/10/05 12:56:43;;;;;;;7.72;0.70;;;;;;;11.29;95.26;99571.16;4848413;29;20042;-91
2022/10/05 12:59:14;;;;;;;7.50;0.88;;;;;;;11.34;94.69;99565.34;4824801;29;20046;-91